Gilbert, Louisiana
Current Conditions -  °F | °C
As of 12:55 PM on Sunday 23 Nov 2014 (Local Time) from KHEZ Reporting Station
Overcast Overcast  
Wind Chill: 68°   Ceiling: 3800
Heat Index: 68°   Visibility: 10mi
Dew Point: 57°   Wind: 12mph
Humidity: 68%   Direction: 220°SW
Pressure: 29.56"   Gusts: 24mph
Location:  32.05°N, 91.66°W
Report Text: KHEZ 231855Z AUTO 22010G21KT 10SM FEW029 OVC038 20/14 A2956 RMK AO1
Loading
Personal Weather Stations






























Interactive Weather Map New forecast layout! Learn more

10-Day Weather Forecast

Advertisements
Track Severe Weather on mobile